createdAt,value
2022-10-11T00:00:23.692Z,9.34
2022-10-11T00:01:23.712Z,9.31
2022-10-11T00:02:26.304Z,9.41
2022-10-11T00:03:23.651Z,9.47
2022-10-11T00:04:23.684Z,9.64
2022-10-11T00:05:23.633Z,9.80
2022-10-11T00:06:23.626Z,9.91
2022-10-11T00:07:23.614Z,10.02
2022-10-11T00:08:23.606Z,10.07
2022-10-11T00:09:23.640Z,10.10
2022-10-11T00:10:23.581Z,10.23
2022-10-11T00:11:23.568Z,10.38
2022-10-11T00:12:23.546Z,10.38
2022-10-11T00:13:23.533Z,10.33
2022-10-11T00:14:23.620Z,10.28
2022-10-11T00:15:23.554Z,10.19
2022-10-11T00:16:23.595Z,10.17
2022-10-11T00:17:23.514Z,10.22
2022-10-11T00:18:23.488Z,10.22
2022-10-11T00:19:23.468Z,10.23
2022-10-11T00:20:23.501Z,10.23
2022-10-11T00:21:23.448Z,10.19
2022-10-11T00:22:23.458Z,10.23
2022-10-11T00:23:23.430Z,10.23
2022-10-11T00:24:23.423Z,10.30
2022-10-11T00:25:23.495Z,10.31
2022-10-11T00:26:23.386Z,10.31
2022-10-11T00:27:23.399Z,10.30
2022-10-11T00:28:23.420Z,10.38
2022-10-11T00:29:23.374Z,10.42
2022-10-11T00:30:23.405Z,10.44
2022-10-11T00:31:23.333Z,10.37
2022-10-11T00:32:23.324Z,10.25
2022-10-11T00:33:23.312Z,10.20
2022-10-11T00:34:23.299Z,10.16
2022-10-11T00:35:23.327Z,10.05
2022-10-11T00:36:23.291Z,10.01
2022-10-11T00:37:23.265Z,10.04
2022-10-11T00:38:23.244Z,10.12
2022-10-11T00:39:23.246Z,10.10
2022-10-11T00:40:23.277Z,10.07
2022-10-11T00:41:23.232Z,10.01
2022-10-11T00:42:23.185Z,9.98
2022-10-11T00:43:23.181Z,9.95
2022-10-11T00:44:23.180Z,9.87
2022-10-11T00:45:23.215Z,9.84
2022-10-11T00:46:23.168Z,9.83
2022-10-11T00:47:23.162Z,9.77
2022-10-11T00:48:23.148Z,9.73
2022-10-11T00:49:23.127Z,9.68
2022-10-11T00:50:23.162Z,9.68
2022-10-11T00:51:23.108Z,9.64
2022-10-11T00:52:23.092Z,9.62
2022-10-11T00:53:23.087Z,9.59
2022-10-11T00:54:23.055Z,9.59
2022-10-11T00:55:23.103Z,9.56
2022-10-11T00:56:23.045Z,9.54
2022-10-11T00:57:23.038Z,9.50
2022-10-11T00:58:23.024Z,9.47
2022-10-11T00:59:23.007Z,9.51
2022-10-11T01:00:23.040Z,9.50
2022-10-11T01:01:23.034Z,9.48
2022-10-11T01:02:22.988Z,9.46
2022-10-11T01:03:22.997Z,9.43
2022-10-11T01:04:22.937Z,9.40
2022-10-11T01:05:29.534Z,9.40
2022-10-11T01:06:23.935Z,9.47
2022-10-11T01:07:22.931Z,9.54
2022-10-11T01:08:22.908Z,9.54
2022-10-11T01:09:22.909Z,9.48
2022-10-11T01:10:22.934Z,9.40
2022-10-11T01:11:22.894Z,9.37
2022-10-11T01:12:22.851Z,9.36
2022-10-11T01:13:22.841Z,9.48
2022-10-11T01:14:22.828Z,9.39
2022-10-11T01:15:22.881Z,9.34
2022-10-11T01:16:22.831Z,9.29
2022-10-11T01:17:22.811Z,9.28
2022-10-11T01:18:22.806Z,9.23
2022-10-11T01:19:22.793Z,9.18
2022-10-11T01:20:22.822Z,9.13
2022-10-11T01:21:22.778Z,9.14
2022-10-11T01:22:22.743Z,9.14
2022-10-11T01:23:22.753Z,9.16
2022-10-11T01:24:22.724Z,9.13
2022-10-11T01:25:22.769Z,9.08
2022-10-11T01:26:22.713Z,9.02
2022-10-11T01:27:22.702Z,8.99
2022-10-11T01:28:22.732Z,8.92
2022-10-11T01:29:22.692Z,8.84
2022-10-11T01:30:22.721Z,8.81
2022-10-11T01:31:22.647Z,8.81
2022-10-11T01:32:22.643Z,8.74
2022-10-11T01:33:22.637Z,8.70
2022-10-11T01:34:22.627Z,8.81
2022-10-11T01:35:22.660Z,8.87
2022-10-11T01:36:22.615Z,8.85
2022-10-11T01:37:22.580Z,8.88
2022-10-11T01:38:22.587Z,8.85
2022-10-11T01:39:22.561Z,8.95
2022-10-11T01:40:22.599Z,9.04
2022-10-11T01:41:22.555Z,9.00
2022-10-11T01:42:22.519Z,8.97
2022-10-11T01:43:22.505Z,8.91
2022-10-11T01:44:22.524Z,9.03
2022-10-11T01:45:22.542Z,9.10
2022-10-11T01:46:22.480Z,9.13
2022-10-11T01:47:22.486Z,9.11
2022-10-11T01:48:22.479Z,9.13
2022-10-11T01:49:22.490Z,9.32
2022-10-11T01:50:22.498Z,9.51
2022-10-11T01:51:22.444Z,9.56
2022-10-11T01:52:22.423Z,9.62
2022-10-11T01:53:22.408Z,9.65
2022-10-11T01:54:22.417Z,9.72
2022-10-11T01:55:22.443Z,9.77
2022-10-11T01:56:22.383Z,9.80
2022-10-11T01:57:22.368Z,9.80
2022-10-11T01:58:22.366Z,9.89
2022-10-11T01:59:22.349Z,9.86
2022-10-11T02:00:22.405Z,9.99
2022-10-11T02:01:22.383Z,10.04
2022-10-11T02:02:22.304Z,9.98
2022-10-11T02:03:22.337Z,10.01
2022-10-11T02:04:22.286Z,10.07
2022-10-11T02:05:22.315Z,10.07
2022-10-11T02:06:22.266Z,10.04
2022-10-11T02:07:22.266Z,9.89
2022-10-11T02:08:22.249Z,9.84
2022-10-11T02:09:22.249Z,9.86
2022-10-11T02:10:22.284Z,9.94
2022-10-11T02:11:22.211Z,10.04
2022-10-11T02:12:22.191Z,10.02
2022-10-11T02:13:22.181Z,9.97
2022-10-11T02:14:22.169Z,9.87
2022-10-11T02:15:22.225Z,9.82
2022-10-11T02:16:22.163Z,9.76
2022-10-11T02:17:22.148Z,9.79
2022-10-11T02:18:22.132Z,9.73
2022-10-11T02:19:22.127Z,9.65
2022-10-11T02:20:22.156Z,9.61
2022-10-11T02:21:22.116Z,9.55
2022-10-11T02:22:22.081Z,9.48
2022-10-11T02:23:22.085Z,9.43
2022-10-11T02:24:22.065Z,9.34
2022-10-11T02:25:22.110Z,9.25
2022-10-11T02:26:22.056Z,9.28
2022-10-11T02:27:22.045Z,9.22
2022-10-11T02:28:22.062Z,9.16
2022-10-11T02:29:22.033Z,9.08
2022-10-11T02:30:22.043Z,8.99
2022-10-11T02:31:22.023Z,8.94
2022-10-11T02:32:21.992Z,8.88
2022-10-11T02:33:21.966Z,8.79
2022-10-11T02:34:21.962Z,8.74
2022-10-11T02:35:22.003Z,8.71
2022-10-11T02:36:21.955Z,8.67
2022-10-11T02:37:21.937Z,8.60
2022-10-11T02:38:21.931Z,8.56
2022-10-11T02:39:21.912Z,8.52
2022-10-11T02:40:21.940Z,8.49
2022-10-11T02:41:21.866Z,8.37
2022-10-11T02:42:21.852Z,8.36
2022-10-11T02:43:21.841Z,8.38
2022-10-11T02:44:21.834Z,8.45
2022-10-11T02:45:21.882Z,8.56
2022-10-11T02:46:21.821Z,8.71
2022-10-11T02:47:21.807Z,8.74
2022-10-11T02:48:21.812Z,8.84
2022-10-11T02:49:21.793Z,8.87
2022-10-11T02:50:21.824Z,8.85
2022-10-11T02:51:21.767Z,8.81
2022-10-11T02:52:21.759Z,8.71
2022-10-11T02:53:21.746Z,8.69
2022-10-11T02:54:21.721Z,8.71
2022-10-11T02:55:21.764Z,8.66
2022-10-11T02:56:21.700Z,8.64
2022-10-11T02:57:21.710Z,8.61
2022-10-11T02:58:21.691Z,8.66
2022-10-11T02:59:21.689Z,8.67
2022-10-11T03:00:21.680Z,8.70
2022-10-11T03:01:21.731Z,8.69
2022-10-11T03:02:21.656Z,8.58
2022-10-11T03:03:21.627Z,8.46
2022-10-11T03:04:21.626Z,8.46
2022-10-11T03:05:21.605Z,8.44
2022-10-11T03:06:21.652Z,8.36
2022-10-11T03:07:21.579Z,8.24
2022-10-11T03:08:21.564Z,8.18
2022-10-11T03:09:21.552Z,8.13
2022-10-11T03:10:21.541Z,8.09
2022-10-11T03:11:21.589Z,8.01
2022-10-11T03:12:21.515Z,7.94
2022-10-11T03:13:21.502Z,7.88
2022-10-11T03:14:21.488Z,7.83
2022-10-11T03:15:21.486Z,7.73
2022-10-11T03:16:21.524Z,7.66
2022-10-11T03:17:36.286Z,7.58
2022-10-11T03:18:22.483Z,7.50
2022-10-11T03:19:21.438Z,7.48
2022-10-11T03:20:21.433Z,7.42
2022-10-11T03:21:21.461Z,7.39
2022-10-11T03:22:21.407Z,7.36
2022-10-11T03:23:21.400Z,7.33
2022-10-11T03:24:21.392Z,7.28
2022-10-11T03:25:21.370Z,7.21
2022-10-11T03:26:21.416Z,7.18
2022-10-11T03:27:21.364Z,7.10
2022-10-11T03:28:21.401Z,7.06
2022-10-11T03:29:21.340Z,7.06
2022-10-11T03:30:21.320Z,7.02
2022-10-11T03:31:21.360Z,6.92
2022-10-11T03:32:21.339Z,6.87
2022-10-11T03:33:21.275Z,6.81
2022-10-11T03:34:21.283Z,6.78
2022-10-11T03:35:21.269Z,6.74
2022-10-11T03:36:21.304Z,6.69
2022-10-11T03:37:21.238Z,6.62
2022-10-11T03:38:21.235Z,6.52
2022-10-11T03:39:21.222Z,6.48
2022-10-11T03:40:21.217Z,6.45
2022-10-11T03:41:21.242Z,6.48
2022-10-11T03:42:21.195Z,6.48
2022-10-11T03:43:21.171Z,6.44
2022-10-11T03:44:21.152Z,6.49
2022-10-11T03:45:21.143Z,6.49
2022-10-11T03:46:21.181Z,6.51
2022-10-11T03:47:21.123Z,6.42
2022-10-11T03:48:21.128Z,6.33
2022-10-11T03:49:21.101Z,6.30
2022-10-11T03:50:21.099Z,6.28
2022-10-11T03:51:21.119Z,6.22
2022-10-11T03:52:21.072Z,6.20
2022-10-11T03:53:21.053Z,6.19
2022-10-11T03:54:21.053Z,6.16
2022-10-11T03:55:21.031Z,6.14
2022-10-11T03:56:21.062Z,6.12
2022-10-11T03:57:21.022Z,6.08
2022-10-11T03:58:21.004Z,6.07
2022-10-11T03:59:20.986Z,6.02
2022-10-11T04:00:20.971Z,5.97
2022-10-11T04:01:21.036Z,5.91
2022-10-11T04:02:20.961Z,5.84
2022-10-11T04:03:20.939Z,5.75
2022-10-11T04:04:20.933Z,5.66
2022-10-11T04:05:20.919Z,5.56
2022-10-11T04:06:20.958Z,5.51
2022-10-11T04:07:20.895Z,5.47
2022-10-11T04:08:20.890Z,5.47
2022-10-11T04:09:20.879Z,5.50
2022-10-11T04:10:20.866Z,5.46
2022-10-11T04:11:20.894Z,5.47
2022-10-11T04:12:20.839Z,5.46
2022-10-11T04:13:20.841Z,5.46
2022-10-11T04:14:20.825Z,5.43
2022-10-11T04:15:20.829Z,5.46
2022-10-11T04:16:20.843Z,5.46
2022-10-11T04:17:20.782Z,5.43
2022-10-11T04:18:20.769Z,5.43
2022-10-11T04:19:20.761Z,5.39
2022-10-11T04:20:20.756Z,5.39
2022-10-11T04:21:20.792Z,5.38
2022-10-11T04:22:20.735Z,5.35
2022-10-11T04:23:20.726Z,5.28
2022-10-11T04:24:20.710Z,5.23
2022-10-11T04:25:20.704Z,5.15
2022-10-11T04:26:20.728Z,5.11
2022-10-11T04:27:20.682Z,5.07
2022-10-11T04:28:20.698Z,5.04
2022-10-11T04:29:20.651Z,5.05
2022-10-11T04:30:20.646Z,4.99
2022-10-11T04:31:20.679Z,4.96
2022-10-11T04:32:20.636Z,4.96
2022-10-11T04:33:20.598Z,4.92
2022-10-11T04:34:20.610Z,4.86
2022-10-11T04:35:20.582Z,4.86
2022-10-11T04:36:20.752Z,4.84
2022-10-11T04:37:20.560Z,4.84
2022-10-11T04:38:20.563Z,4.82
2022-10-11T04:39:20.537Z,4.74
2022-10-11T04:40:20.533Z,4.62
2022-10-11T04:41:20.563Z,4.55
2022-10-11T04:42:20.554Z,4.58
2022-10-11T04:43:20.505Z,4.55
2022-10-11T04:44:20.483Z,4.53
2022-10-11T04:45:20.473Z,4.59
2022-10-11T04:46:20.510Z,4.56
2022-10-11T04:47:20.448Z,4.55
2022-10-11T04:48:20.435Z,4.50
2022-10-11T04:49:20.427Z,4.48
2022-10-11T04:50:20.411Z,4.45
2022-10-11T04:51:20.457Z,4.44
2022-10-11T04:52:25.376Z,4.44
2022-10-11T04:53:21.384Z,4.44
2022-10-11T04:54:20.376Z,4.42
2022-10-11T04:55:20.364Z,4.42
2022-10-11T04:56:20.396Z,4.41
2022-10-11T04:57:20.333Z,4.40
2022-10-11T04:58:20.328Z,4.38
2022-10-11T04:59:20.312Z,4.42
2022-10-11T05:00:20.306Z,4.40
2022-10-11T05:01:20.342Z,4.44
2022-10-11T05:02:20.372Z,4.49
2022-10-11T05:03:20.268Z,4.52
2022-10-11T05:04:20.272Z,4.52
2022-10-11T05:05:20.243Z,4.50
2022-10-11T05:06:20.289Z,4.55
2022-10-11T05:07:20.250Z,4.59
2022-10-11T05:08:20.226Z,4.59
2022-10-11T05:09:20.216Z,4.59
2022-10-11T05:10:20.188Z,4.59
2022-10-11T05:11:20.227Z,4.60
2022-10-11T05:12:20.166Z,4.55
2022-10-11T05:13:20.154Z,4.53
2022-10-11T05:14:20.146Z,4.56
2022-10-11T05:15:20.134Z,4.59
2022-10-11T05:16:20.177Z,4.62
2022-10-11T05:17:20.241Z,4.67
2022-10-11T05:18:20.109Z,4.67
2022-10-11T05:19:20.087Z,4.63
2022-10-11T05:20:20.071Z,4.60
2022-10-11T05:21:20.107Z,4.56
2022-10-11T05:22:20.068Z,4.53
2022-10-11T05:23:20.034Z,4.50
2022-10-11T05:24:20.035Z,4.42
2022-10-11T05:25:20.021Z,4.38
2022-10-11T05:26:20.051Z,4.31
2022-10-11T05:27:20.007Z,4.32
2022-10-11T05:28:20.090Z,4.31
2022-10-11T05:29:19.976Z,4.30
2022-10-11T05:30:19.966Z,4.28
2022-10-11T05:31:20.007Z,4.28
2022-10-11T05:32:19.972Z,4.30
2022-10-11T05:33:19.927Z,4.30
2022-10-11T05:34:20.010Z,4.26
2022-10-11T05:35:19.913Z,4.24
2022-10-11T05:36:19.962Z,4.26
2022-10-11T05:37:19.891Z,4.24
2022-10-11T05:38:19.873Z,4.26
2022-10-11T05:39:19.865Z,4.26
2022-10-11T05:40:19.860Z,4.31
2022-10-11T05:41:19.893Z,4.34
2022-10-11T05:42:19.834Z,4.40
2022-10-11T05:43:19.832Z,4.44
2022-10-11T05:44:19.810Z,4.49
2022-10-11T05:45:19.800Z,4.55
2022-10-11T05:46:19.830Z,4.58
2022-10-11T05:47:19.767Z,4.59
2022-10-11T05:48:19.865Z,4.59
2022-10-11T05:49:19.797Z,4.59
2022-10-11T05:50:24.183Z,4.58
2022-10-11T05:51:19.772Z,4.56
2022-10-11T05:52:19.724Z,4.59
2022-10-11T05:53:19.698Z,4.62
2022-10-11T05:54:19.711Z,4.59
2022-10-11T05:55:19.686Z,4.60
2022-10-11T05:56:19.722Z,4.67
2022-10-11T05:57:19.668Z,4.74
2022-10-11T05:58:19.750Z,4.77
2022-10-11T05:59:19.634Z,4.89
2022-10-11T06:00:19.627Z,4.97
2022-10-11T06:01:19.704Z,5.07
2022-10-11T06:02:19.604Z,5.17
2022-10-11T06:03:19.596Z,5.23
2022-10-11T06:04:19.595Z,5.23
2022-10-11T06:05:19.568Z,5.26
2022-10-11T06:06:19.618Z,5.29
2022-10-11T06:07:19.557Z,5.29
2022-10-11T06:08:19.546Z,5.33
2022-10-11T06:09:19.524Z,5.38
2022-10-11T06:10:19.510Z,5.46
2022-10-11T06:11:19.541Z,5.48
2022-10-11T06:12:19.496Z,5.48
2022-10-11T06:13:19.476Z,5.53
2022-10-11T06:14:19.498Z,5.57
2022-10-11T06:15:19.465Z,5.62
2022-10-11T06:16:19.490Z,5.69
2022-10-11T06:17:19.431Z,5.80
2022-10-11T06:18:19.515Z,5.89
2022-10-11T06:19:19.409Z,5.99
2022-10-11T06:20:19.413Z,6.08
2022-10-11T06:21:19.436Z,6.19
2022-10-11T06:22:19.369Z,6.31
2022-10-11T06:23:19.357Z,6.39
2022-10-11T06:24:19.357Z,6.44
2022-10-11T06:25:19.356Z,6.51
2022-10-11T06:26:19.376Z,6.56
2022-10-11T06:27:19.324Z,6.62
2022-10-11T06:28:19.367Z,6.70
2022-10-11T06:29:19.298Z,6.78
2022-10-11T06:30:19.296Z,6.85
2022-10-11T06:31:19.322Z,6.96
2022-10-11T06:32:19.266Z,7.07
2022-10-11T06:33:19.270Z,7.23
2022-10-11T06:34:19.255Z,7.45
2022-10-11T06:35:19.248Z,7.58
2022-10-11T06:36:19.281Z,7.72
2022-10-11T06:37:19.223Z,7.76
2022-10-11T06:38:19.208Z,7.83
2022-10-11T06:39:19.181Z,8.00
2022-10-11T06:40:19.178Z,8.23
2022-10-11T06:41:19.222Z,8.33
2022-10-11T06:42:19.158Z,8.53
2022-10-11T06:43:19.143Z,8.84
2022-10-11T06:44:19.148Z,8.94
2022-10-11T06:45:19.138Z,9.00
2022-10-11T06:46:19.183Z,9.11
2022-10-11T06:47:19.114Z,9.28
2022-10-11T06:48:19.093Z,9.41
2022-10-11T06:49:23.097Z,9.58
2022-10-11T06:50:34.880Z,9.79
2022-10-11T06:51:20.120Z,10.04
2022-10-11T06:52:19.056Z,10.41
2022-10-11T06:53:19.018Z,10.64
2022-10-11T06:54:19.032Z,10.82
2022-10-11T06:55:19.015Z,11.22
2022-10-11T06:56:19.063Z,11.73
2022-10-11T06:57:18.986Z,11.90
2022-10-11T06:58:18.979Z,11.77
2022-10-11T06:59:19.007Z,11.95
2022-10-11T07:00:18.977Z,12.13
2022-10-11T07:01:19.187Z,12.17
2022-10-11T07:02:18.931Z,12.31
2022-10-11T07:03:18.944Z,12.40
2022-10-11T07:04:18.912Z,12.49
2022-10-11T07:05:18.900Z,12.70
2022-10-11T07:06:18.932Z,12.62
2022-10-11T07:07:18.884Z,12.64
2022-10-11T07:08:18.867Z,12.62
2022-10-11T07:09:18.868Z,12.75
2022-10-11T07:10:18.838Z,12.97
2022-10-11T07:11:18.902Z,12.95
2022-10-11T07:12:18.828Z,13.19
2022-10-11T07:13:18.817Z,13.44
2022-10-11T07:14:18.804Z,13.85
2022-10-11T07:15:18.792Z,14.18
2022-10-11T07:16:18.820Z,14.54
2022-10-11T07:17:18.786Z,14.69
2022-10-11T07:18:18.749Z,14.66
2022-10-11T07:19:18.744Z,14.45
2022-10-11T07:20:18.736Z,14.22
2022-10-11T07:21:18.752Z,14.18
2022-10-11T07:22:18.692Z,14.73
2022-10-11T07:23:18.696Z,15.02
2022-10-11T07:24:18.715Z,14.92
2022-10-11T07:25:18.724Z,15.37
2022-10-11T07:26:18.683Z,15.51
2022-10-11T07:27:18.658Z,15.77
2022-10-11T07:28:18.642Z,16.04
2022-10-11T07:29:18.640Z,16.21
2022-10-11T07:30:18.614Z,16.32
2022-10-11T07:31:18.664Z,16.61
2022-10-11T07:32:18.594Z,16.57
2022-10-11T07:33:18.588Z,16.46
2022-10-11T07:34:18.577Z,16.54
2022-10-11T07:35:18.558Z,16.69
2022-10-11T07:36:18.585Z,16.84
2022-10-11T07:37:18.576Z,16.60
2022-10-11T07:38:18.548Z,16.76
2022-10-11T07:39:18.506Z,16.69
2022-10-11T07:40:18.488Z,16.90
2022-10-11T07:41:18.563Z,17.15
2022-10-11T07:42:18.482Z,16.97
2022-10-11T07:43:18.469Z,17.20
2022-10-11T07:44:18.446Z,16.99
2022-10-11T07:45:18.475Z,16.83
2022-10-11T07:46:18.483Z,16.93
2022-10-11T07:47:18.416Z,17.12
2022-10-11T07:48:18.447Z,17.30
2022-10-11T07:49:18.425Z,17.52
2022-10-11T07:50:18.393Z,17.72
2022-10-11T07:51:18.366Z,17.70
2022-10-11T07:52:18.403Z,17.59
2022-10-11T07:53:18.348Z,18.00
2022-10-11T07:54:18.339Z,18.49
2022-10-11T07:55:18.337Z,18.44
2022-10-11T07:56:18.320Z,18.29
2022-10-11T07:57:18.353Z,18.33
2022-10-11T07:58:18.288Z,18.63
2022-10-11T07:59:18.305Z,18.41
2022-10-11T08:00:18.277Z,18.66
2022-10-11T08:01:18.338Z,19.00
2022-10-11T08:02:18.292Z,19.15
2022-10-11T08:03:18.229Z,18.31
2022-10-11T08:04:18.258Z,18.29
2022-10-11T08:05:18.248Z,18.66
2022-10-11T08:06:18.232Z,18.59
2022-10-11T08:07:18.248Z,18.63
2022-10-11T08:08:18.204Z,18.37
2022-10-11T08:09:18.186Z,18.70
2022-10-11T08:10:18.164Z,19.22
2022-10-11T08:11:18.178Z,19.16
2022-10-11T08:12:18.186Z,18.71
2022-10-11T08:13:18.137Z,19.07
2022-10-11T08:14:18.122Z,19.79
2022-10-11T08:15:18.117Z,20.07
2022-10-11T08:16:18.082Z,20.65
2022-10-11T08:17:18.126Z,20.90
2022-10-11T08:18:18.100Z,21.05
2022-10-11T08:19:18.073Z,21.03
2022-10-11T08:20:18.024Z,21.35
2022-10-11T08:21:18.069Z,21.55
2022-10-11T08:22:18.064Z,20.67
2022-10-11T08:23:18.025Z,19.21
2022-10-11T08:24:17.994Z,19.37
2022-10-11T08:25:18.000Z,19.31
2022-10-11T08:26:17.970Z,19.71
2022-10-11T08:27:18.015Z,19.82
2022-10-11T08:28:18.203Z,19.67
2022-10-11T08:29:17.956Z,19.66
2022-10-11T08:30:17.941Z,19.79
2022-10-11T08:31:17.937Z,20.22
2022-10-11T08:32:17.945Z,20.36
2022-10-11T08:33:17.898Z,20.47
2022-10-11T08:34:17.891Z,20.00
2022-10-11T08:35:17.874Z,19.96
2022-10-11T08:36:17.859Z,20.24
2022-10-11T08:37:17.906Z,20.77
2022-10-11T08:38:17.831Z,20.96
2022-10-11T08:39:17.942Z,20.90
2022-10-11T08:40:17.822Z,20.82
2022-10-11T08:41:17.831Z,20.24
2022-10-11T08:42:17.862Z,19.62
2022-10-11T08:43:17.813Z,20.18
2022-10-11T08:44:17.780Z,20.80
2022-10-11T08:45:17.787Z,21.33
2022-10-11T08:46:17.757Z,21.54
2022-10-11T08:47:17.803Z,22.04
2022-10-11T08:48:17.742Z,21.77
2022-10-11T08:49:17.712Z,20.48
2022-10-11T08:50:17.699Z,19.07
2022-10-11T08:51:17.701Z,19.02
2022-10-11T08:52:17.714Z,18.49
2022-10-11T08:53:17.689Z,19.11
2022-10-11T08:54:17.663Z,19.85
2022-10-11T08:55:17.660Z,19.76
2022-10-11T08:56:17.642Z,20.63
2022-10-11T08:57:17.673Z,21.30
2022-10-11T08:58:17.654Z,21.91
2022-10-11T08:59:17.626Z,22.10
2022-10-11T09:00:17.617Z,21.73
2022-10-11T09:01:17.655Z,21.73
2022-10-11T09:02:17.610Z,21.66
2022-10-11T09:03:17.556Z,21.92
2022-10-11T09:04:17.541Z,21.36
2022-10-11T09:05:17.554Z,21.73
2022-10-11T09:06:17.505Z,22.06
2022-10-11T09:07:17.572Z,21.55
2022-10-11T09:08:17.524Z,20.75
2022-10-11T09:09:17.509Z,20.40
2022-10-11T09:10:17.507Z,19.64
2022-10-11T09:11:17.497Z,19.76
2022-10-11T09:12:17.522Z,18.83
2022-10-11T09:13:17.459Z,17.92
2022-10-11T09:14:17.431Z,16.96
2022-10-11T09:15:17.453Z,16.64
2022-10-11T09:16:17.414Z,16.94
2022-10-11T09:17:17.458Z,17.27
2022-10-11T09:18:17.392Z,17.56
2022-10-11T09:19:17.376Z,18.31
2022-10-11T09:20:17.365Z,17.79
2022-10-11T09:21:17.356Z,17.59
2022-10-11T09:22:17.393Z,17.86
2022-10-11T09:23:17.344Z,17.97
2022-10-11T09:24:17.363Z,17.70
2022-10-11T09:25:17.315Z,17.80
2022-10-11T09:26:17.300Z,17.87
2022-10-11T09:27:17.329Z,18.41
2022-10-11T09:28:17.358Z,18.80
2022-10-11T09:29:17.282Z,19.02
2022-10-11T09:30:17.259Z,19.40
2022-10-11T09:31:17.271Z,19.76
2022-10-11T09:32:17.304Z,20.11
2022-10-11T09:33:17.224Z,20.14
2022-10-11T09:34:17.222Z,20.02
2022-10-11T09:35:17.202Z,20.04
2022-10-11T09:36:17.184Z,20.03
2022-10-11T09:37:17.236Z,20.03
2022-10-11T09:38:17.175Z,19.89
2022-10-11T09:39:17.156Z,19.51
2022-10-11T09:40:17.156Z,19.30
2022-10-11T09:41:17.151Z,19.22
2022-10-11T09:42:17.172Z,19.49
2022-10-11T09:43:17.115Z,19.59
2022-10-11T09:44:17.126Z,19.45
2022-10-11T09:45:17.121Z,19.36
2022-10-11T09:46:17.117Z,19.91
2022-10-11T09:47:17.090Z,19.94
2022-10-11T09:48:17.051Z,19.27
2022-10-11T09:49:17.032Z,18.95
2022-10-11T09:50:17.015Z,18.66
2022-10-11T09:51:17.054Z,18.92
2022-10-11T09:52:17.018Z,19.27
2022-10-11T09:53:17.015Z,19.70
2022-10-11T09:54:17.005Z,19.86
2022-10-11T09:55:19.726Z,19.96
2022-10-11T09:56:17.022Z,20.06
2022-10-11T09:57:16.952Z,19.81
2022-10-11T09:58:20.466Z,19.58
2022-10-11T09:59:16.992Z,19.58
2022-10-11T10:00:16.932Z,19.95
2022-10-11T10:01:17.000Z,20.22
2022-10-11T10:02:16.915Z,20.25
2022-10-11T10:03:17.675Z,20.74
2022-10-11T10:04:16.881Z,20.87
2022-10-11T10:05:16.885Z,20.97
2022-10-11T10:06:16.918Z,20.93
2022-10-11T10:07:16.836Z,21.27
2022-10-11T10:08:16.851Z,21.75
2022-10-11T10:09:16.822Z,22.36
2022-10-11T10:10:16.866Z,22.20
2022-10-11T10:11:16.867Z,21.95
2022-10-11T10:12:16.786Z,21.57
2022-10-11T10:13:16.781Z,20.70
2022-10-11T10:14:16.800Z,20.70
2022-10-11T10:15:16.787Z,19.96
2022-10-11T10:16:16.795Z,19.11
2022-10-11T10:17:16.765Z,18.23
2022-10-11T10:18:16.712Z,17.59
2022-10-11T10:19:16.699Z,17.63
2022-10-11T10:20:16.713Z,18.11
2022-10-11T10:21:16.735Z,18.60
2022-10-11T10:22:16.703Z,19.22
2022-10-11T10:23:16.696Z,19.84
2022-10-11T10:24:16.683Z,20.48
2022-10-11T10:25:16.635Z,20.92
2022-10-11T10:26:16.655Z,20.72
2022-10-11T10:27:16.670Z,19.48
2022-10-11T10:28:16.671Z,19.11
2022-10-11T10:29:16.603Z,18.77
2022-10-11T10:30:16.617Z,18.41
2022-10-11T10:31:16.562Z,19.09
2022-10-11T10:32:16.607Z,19.88
2022-10-11T10:33:16.569Z,20.02
2022-10-11T10:34:16.556Z,20.63
2022-10-11T10:35:16.548Z,21.37
2022-10-11T10:36:16.546Z,21.51
2022-10-11T10:37:16.575Z,21.57
2022-10-11T10:38:16.495Z,21.07
2022-10-11T10:39:16.485Z,20.65
2022-10-11T10:40:16.586Z,20.14
2022-10-11T10:41:16.472Z,20.56
2022-10-11T10:42:16.484Z,20.63
2022-10-11T10:43:16.447Z,21.09
2022-10-11T10:44:16.442Z,21.69
2022-10-11T10:45:21.139Z,21.91
2022-10-11T10:46:17.422Z,22.28
2022-10-11T10:47:16.454Z,22.51
2022-10-11T10:48:16.373Z,22.25
2022-10-11T10:49:41.587Z,22.25
2022-10-11T10:50:17.353Z,21.82
2022-10-11T10:51:16.355Z,21.24
2022-10-11T10:52:16.403Z,20.09
2022-10-11T10:53:16.336Z,19.30
2022-10-11T10:54:16.320Z,18.98
2022-10-11T10:55:16.320Z,18.65
2022-10-11T10:56:16.272Z,18.31
2022-10-11T10:57:16.353Z,17.78
2022-10-11T10:58:18.813Z,17.52
2022-10-11T10:59:16.269Z,17.36
2022-10-11T11:00:16.280Z,17.12
2022-10-11T11:01:16.306Z,18.43
2022-10-11T11:02:39.252Z,19.88
2022-10-11T11:03:17.241Z,20.60
2022-10-11T11:04:16.216Z,20.99
2022-10-11T11:05:16.195Z,20.21
2022-10-11T11:06:16.182Z,19.47
2022-10-11T11:07:16.216Z,19.08
2022-10-11T11:08:16.183Z,20.14
2022-10-11T11:09:16.156Z,20.77
2022-10-11T11:10:16.144Z,20.09
2022-10-11T11:11:16.139Z,19.59
2022-10-11T11:12:16.164Z,18.80
2022-10-11T11:13:16.123Z,18.58
2022-10-11T11:14:16.121Z,18.03
2022-10-11T11:15:16.088Z,17.59
2022-10-11T11:16:16.068Z,17.70
2022-10-11T11:17:16.119Z,18.50
2022-10-11T11:18:16.042Z,20.06
2022-10-11T11:19:16.034Z,21.15
2022-10-11T11:20:16.017Z,20.47
2022-10-11T11:21:16.084Z,19.99
2022-10-11T11:22:16.060Z,19.16
2022-10-11T11:23:16.021Z,18.63
2022-10-11T11:24:15.973Z,18.55
2022-10-11T11:25:15.981Z,18.92
2022-10-11T11:26:15.969Z,19.00
2022-10-11T11:27:15.996Z,18.45
2022-10-11T11:28:15.982Z,18.23
2022-10-11T11:29:15.914Z,17.97
2022-10-11T11:30:15.923Z,17.54
2022-10-11T11:31:15.902Z,17.22
2022-10-11T11:32:15.960Z,16.83
2022-10-11T11:33:15.888Z,16.53
2022-10-11T11:34:15.889Z,16.38
2022-10-11T11:35:15.862Z,16.20
2022-10-11T11:36:15.874Z,16.10
2022-10-11T11:37:15.882Z,16.10
2022-10-11T11:38:15.852Z,15.97
2022-10-11T11:39:15.827Z,16.21
2022-10-11T11:40:15.803Z,17.70
2022-10-11T11:41:15.827Z,18.92
2022-10-11T11:42:15.848Z,19.92
2022-10-11T11:43:15.783Z,20.58
2022-10-11T11:44:15.761Z,21.25
2022-10-11T11:45:15.741Z,21.96
2022-10-11T11:46:15.739Z,22.26
2022-10-11T11:47:15.767Z,22.29
2022-10-11T11:48:15.701Z,22.76
2022-10-11T11:49:15.698Z,22.96
2022-10-11T11:50:15.740Z,22.98
2022-10-11T11:51:15.684Z,23.39
2022-10-11T11:52:15.718Z,23.32
2022-10-11T11:53:15.660Z,23.40
2022-10-11T11:54:15.651Z,23.20
2022-10-11T11:55:15.650Z,23.13
2022-10-11T11:56:15.625Z,23.05
2022-10-11T11:57:15.684Z,23.25
2022-10-11T11:58:15.614Z,23.55
2022-10-11T11:59:15.569Z,23.31
2022-10-11T12:00:15.597Z,23.81
2022-10-11T12:01:15.582Z,24.10
2022-10-11T12:02:15.697Z,23.74
2022-10-11T12:03:15.571Z,23.06
2022-10-11T12:04:15.544Z,22.93
2022-10-11T12:05:15.520Z,22.96
2022-10-11T12:06:15.521Z,23.17
2022-10-11T12:07:17.114Z,22.73
2022-10-11T12:08:15.504Z,22.73
2022-10-11T12:09:15.473Z,22.60
2022-10-11T12:10:15.493Z,22.47
2022-10-11T12:11:15.463Z,22.68
2022-10-11T12:12:15.492Z,22.84
2022-10-11T12:13:15.453Z,23.63
2022-10-11T12:14:15.410Z,23.56
2022-10-11T12:15:15.437Z,23.51
2022-10-11T12:16:15.382Z,23.84
2022-10-11T12:17:15.410Z,23.81
2022-10-11T12:18:15.377Z,23.63
2022-10-11T12:19:15.379Z,22.93
2022-10-11T12:20:15.367Z,22.91
2022-10-11T12:21:15.335Z,23.15
2022-10-11T12:22:15.373Z,22.72
2022-10-11T12:23:19.734Z,22.41
2022-10-11T12:24:15.327Z,21.52
2022-10-11T12:25:18.495Z,20.93
2022-10-11T12:26:15.337Z,20.37
2022-10-11T12:27:15.324Z,19.94
2022-10-11T12:28:15.311Z,19.82
2022-10-11T12:29:15.257Z,19.59
2022-10-11T12:30:15.231Z,19.04
2022-10-11T12:31:15.241Z,18.92
2022-10-11T12:32:15.282Z,18.78
2022-10-11T12:33:15.220Z,18.47
2022-10-11T12:34:15.226Z,18.15
2022-10-11T12:35:15.232Z,18.10
2022-10-11T12:36:15.628Z,18.00
2022-10-11T12:37:15.251Z,17.85
2022-10-11T12:38:15.171Z,17.46
2022-10-11T12:39:15.166Z,17.27
2022-10-11T12:40:15.150Z,17.01
2022-10-11T12:41:15.111Z,16.87
2022-10-11T12:42:15.158Z,16.93
2022-10-11T12:43:15.101Z,16.96
2022-10-11T12:44:15.089Z,16.91
2022-10-11T12:45:15.052Z,16.79
2022-10-11T12:46:15.056Z,16.65
2022-10-11T12:47:15.104Z,16.41
2022-10-11T12:48:15.045Z,16.20
2022-10-11T12:49:15.018Z,16.09
2022-10-11T12:50:15.025Z,16.15
2022-10-11T12:51:15.027Z,16.24
2022-10-11T12:52:15.048Z,16.33
2022-10-11T12:53:15.038Z,16.42
2022-10-11T12:54:26.591Z,16.28
2022-10-11T12:55:15.961Z,16.17
2022-10-11T12:56:14.961Z,16.21
2022-10-11T12:57:14.971Z,16.21
2022-10-11T12:58:14.943Z,16.12
2022-10-11T12:59:14.918Z,16.09
2022-10-11T13:00:14.919Z,16.04
2022-10-11T13:01:14.952Z,15.97
2022-10-11T13:02:14.940Z,15.97
2022-10-11T13:03:14.876Z,15.98
2022-10-11T13:04:14.853Z,16.28